Terminal Aerodrome Forecast
Issued by NWS Charleston, WV

Home | Current Version | Previous Version | Text Only | Print | Product List | Glossary On
Versions: 1 2 3 4 5 6 7 8 9 10 11 12 13 14 15 16 17 18 19 20 21 22 23 24 25 26 27 28
866
FTUS41 KRLX 260307 AAA
TAFEKN
TAF AMD
KEKN 260307Z 2603/2624 29012G21KT P6SM -SHSN OVC030
      TEMPO 2605/2609 5SM -SHSN
     FM261000 28011G20KT P6SM OVC035
     FM261300 26009KT P6SM BKN035
     FM261500 28013KT P6SM BKN250
     FM262300 23005KT P6SM FEW250=

USA.gov is the U.S. government's official web portal to all federal, state and local government web resources and services.